createdAt,value
2023-03-19T00:00:34.014Z,12.55
2023-03-19T00:03:01.063Z,13.35
2023-03-19T00:05:27.611Z,13.40
2023-03-19T00:07:54.091Z,12.73
2023-03-19T00:10:21.282Z,9.95
2023-03-19T00:12:47.758Z,9.52
2023-03-19T00:15:15.378Z,8.73
2023-03-19T00:17:43.001Z,8.38
2023-03-19T00:20:11.684Z,9.57
2023-03-19T00:22:38.415Z,7.18
2023-03-19T00:25:05.480Z,8.27
2023-03-19T00:27:32.012Z,8.25
2023-03-19T00:29:58.483Z,8.70
2023-03-19T00:32:25.721Z,7.25
2023-03-19T00:34:52.868Z,9.15
2023-03-19T00:37:19.342Z,8.73
2023-03-19T00:39:45.806Z,7.70
2023-03-19T00:42:12.982Z,8.27
2023-03-19T00:44:39.500Z,8.43
2023-03-19T00:47:07.281Z,8.45
2023-03-19T00:49:33.774Z,8.73
2023-03-19T00:52:00.304Z,7.72
2023-03-19T00:54:27.424Z,8.50
2023-03-19T00:56:53.932Z,9.10
2023-03-19T00:59:20.601Z,9.63
2023-03-19T01:01:47.210Z,10.00
2023-03-19T01:04:14.874Z,8.68
2023-03-19T01:06:41.804Z,9.75
2023-03-19T01:09:08.390Z,8.52
2023-03-19T01:11:35.219Z,9.35
2023-03-19T01:14:02.790Z,8.88
2023-03-19T01:16:29.521Z,10.35
2023-03-19T01:18:56.086Z,9.75
2023-03-19T01:21:22.609Z,9.70
2023-03-19T01:23:49.283Z,9.70
2023-03-19T01:26:16.631Z,9.63
2023-03-19T01:28:43.447Z,9.80
2023-03-19T01:31:10.649Z,8.90
2023-03-19T01:33:37.643Z,9.13
2023-03-19T01:36:05.498Z,9.13
2023-03-19T01:38:32.496Z,9.70
2023-03-19T01:40:58.984Z,9.13
2023-03-19T01:43:30.809Z,9.07
2023-03-19T01:46:01.729Z,9.57
2023-03-19T01:48:38.481Z,11.48
2023-03-19T01:51:07.560Z,10.88
2023-03-19T01:53:36.056Z,10.70
2023-03-19T01:56:25.649Z,11.52
2023-03-19T01:58:56.608Z,10.85
2023-03-19T02:01:23.293Z,10.75
2023-03-19T02:03:52.655Z,10.98
2023-03-19T02:06:21.673Z,10.60
2023-03-19T02:08:51.376Z,11.63
2023-03-19T02:11:18.828Z,11.05
2023-03-19T02:13:46.155Z,11.88
2023-03-19T02:16:12.715Z,11.27
2023-03-19T02:18:39.193Z,12.98
2023-03-19T02:21:08.247Z,12.57
2023-03-19T02:23:34.861Z,11.80
2023-03-19T02:26:08.968Z,10.43
2023-03-19T02:28:39.743Z,10.88
2023-03-19T02:31:07.465Z,11.55
2023-03-19T02:33:34.364Z,10.68
2023-03-19T02:36:03.322Z,11.40
2023-03-19T02:38:32.599Z,11.40
2023-03-19T02:41:05.376Z,11.73
2023-03-19T02:43:34.229Z,10.93
2023-03-19T02:46:06.327Z,11.32
2023-03-19T02:48:33.126Z,11.27
2023-03-19T02:51:02.325Z,10.60
2023-03-19T02:53:28.741Z,11.27
2023-03-19T02:55:55.631Z,11.13
2023-03-19T02:58:22.169Z,10.45
2023-03-19T03:00:48.697Z,10.65
2023-03-19T03:03:15.235Z,10.63
2023-03-19T03:05:41.803Z,11.45
2023-03-19T03:08:09.302Z,12.07
2023-03-19T03:10:35.983Z,11.30
2023-03-19T03:13:02.501Z,11.35
2023-03-19T03:15:29.668Z,12.00
2023-03-19T03:17:56.878Z,11.70
2023-03-19T03:20:24.827Z,11.82
2023-03-19T03:22:54.263Z,12.07
2023-03-19T03:25:21.300Z,12.35
2023-03-19T03:27:48.057Z,13.25
2023-03-19T03:30:16.161Z,11.63
2023-03-19T03:32:43.447Z,12.43
2023-03-19T03:35:18.067Z,12.43
2023-03-19T03:37:44.515Z,13.52
2023-03-19T03:40:11.504Z,12.63
2023-03-19T03:42:38.026Z,12.68
2023-03-19T03:45:04.964Z,12.10
2023-03-19T03:47:31.528Z,12.80
2023-03-19T03:49:58.031Z,13.23
2023-03-19T03:52:26.625Z,12.38
2023-03-19T03:54:53.085Z,12.35
2023-03-19T03:57:19.535Z,12.75
2023-03-19T03:59:46.472Z,12.77
2023-03-19T04:02:12.976Z,12.40
2023-03-19T04:04:39.414Z,12.48
2023-03-19T04:07:06.714Z,13.32
2023-03-19T04:09:33.164Z,12.65
2023-03-19T04:12:00.296Z,12.45
2023-03-19T04:14:35.648Z,11.25
2023-03-19T04:19:28.538Z,11.50
2023-03-19T04:21:57.578Z,11.88
2023-03-19T04:24:24.229Z,11.40
2023-03-19T04:26:51.128Z,13.38
2023-03-19T04:29:18.688Z,12.20
2023-03-19T04:31:45.786Z,12.75
2023-03-19T04:34:12.935Z,13.02
2023-03-19T04:36:39.419Z,12.55
2023-03-19T04:39:05.983Z,11.45
2023-03-19T04:41:38.627Z,11.85
2023-03-19T04:44:05.213Z,12.35
2023-03-19T04:46:31.809Z,12.13
2023-03-19T04:48:59.800Z,11.02
2023-03-19T04:51:26.320Z,12.32
2023-03-19T04:53:52.825Z,12.35
2023-03-19T04:56:19.366Z,11.80
2023-03-19T04:58:46.129Z,12.32
2023-03-19T05:01:13.208Z,11.55
2023-03-19T05:03:44.344Z,11.05
2023-03-19T05:06:11.756Z,11.45
2023-03-19T05:08:38.338Z,10.82
2023-03-19T05:11:05.244Z,9.40
2023-03-19T05:13:31.671Z,11.07
2023-03-19T05:15:58.200Z,10.20
2023-03-19T05:18:24.695Z,10.63
2023-03-19T05:20:51.220Z,10.55
2023-03-19T05:23:17.996Z,8.80
2023-03-19T05:25:50.365Z,8.88
2023-03-19T05:28:17.403Z,7.28
2023-03-19T05:30:44.092Z,7.93
2023-03-19T05:33:10.695Z,7.70
2023-03-19T05:35:37.807Z,10.27
2023-03-19T05:38:04.338Z,9.48
2023-03-19T05:40:32.020Z,8.38
2023-03-19T05:42:58.599Z,6.88
2023-03-19T05:45:25.662Z,7.07
2023-03-19T05:47:52.125Z,6.25
2023-03-19T05:50:19.350Z,5.22
2023-03-19T05:52:45.985Z,2.13
2023-03-19T05:55:12.506Z,4.82
2023-03-19T05:57:39.564Z,4.40
2023-03-19T06:00:07.649Z,5.25
2023-03-19T06:02:35.437Z,6.00
2023-03-19T06:05:02.144Z,5.88
2023-03-19T06:07:28.622Z,6.22
2023-03-19T06:09:55.241Z,5.70
2023-03-19T06:12:22.004Z,4.35
2023-03-19T06:14:48.493Z,5.85
2023-03-19T06:17:15.351Z,6.07
2023-03-19T06:19:41.824Z,6.00
2023-03-19T06:22:08.946Z,5.68
2023-03-19T06:24:40.932Z,2.17
2023-03-19T06:27:07.729Z,6.30
2023-03-19T06:29:34.199Z,6.25
2023-03-19T06:32:00.711Z,5.15
2023-03-19T06:34:27.570Z,5.50
2023-03-19T06:37:20.369Z,5.75
2023-03-19T06:39:46.900Z,5.97
2023-03-19T06:42:13.464Z,6.28
2023-03-19T06:44:40.014Z,4.40
2023-03-19T06:47:08.521Z,3.00
2023-03-19T06:49:35.448Z,2.50
2023-03-19T06:52:02.014Z,6.10
2023-03-19T06:54:28.501Z,7.30
2023-03-19T06:56:54.992Z,5.97
2023-03-19T06:59:21.430Z,4.00
2023-03-19T07:01:47.893Z,7.25
2023-03-19T07:04:14.434Z,6.72
2023-03-19T07:06:40.908Z,6.88
2023-03-19T07:09:07.869Z,5.78
2023-03-19T07:11:35.909Z,6.93
2023-03-19T07:14:02.967Z,6.63
2023-03-19T07:16:29.589Z,6.90
2023-03-19T07:18:56.831Z,7.45
2023-03-19T07:21:23.753Z,9.68
2023-03-19T07:23:52.747Z,9.63
2023-03-19T07:26:19.316Z,12.75
2023-03-19T07:28:46.053Z,12.00
2023-03-19T07:31:13.049Z,10.23
2023-03-19T07:33:39.584Z,12.25
2023-03-19T07:36:07.140Z,11.65
2023-03-19T07:38:33.702Z,12.13
2023-03-19T07:41:02.814Z,13.10
2023-03-19T07:43:30.238Z,10.90
2023-03-19T07:45:56.871Z,11.55
2023-03-19T07:48:23.367Z,9.45
2023-03-19T07:50:51.303Z,10.60
2023-03-19T07:53:18.428Z,8.82
2023-03-19T07:55:44.913Z,7.97
2023-03-19T07:58:11.712Z,7.55
2023-03-19T08:00:38.183Z,6.32
2023-03-19T08:03:04.706Z,6.43
2023-03-19T08:05:31.196Z,7.32
2023-03-19T08:07:57.697Z,7.13
2023-03-19T08:10:24.198Z,6.97
2023-03-19T08:12:50.885Z,6.82
2023-03-19T08:15:17.653Z,6.07
2023-03-19T08:17:56.585Z,6.20
2023-03-19T08:20:23.113Z,7.47
2023-03-19T08:22:51.030Z,7.03
2023-03-19T08:25:17.913Z,7.55
2023-03-19T08:27:44.390Z,7.13
2023-03-19T08:30:11.845Z,7.88
2023-03-19T08:32:38.342Z,8.18
2023-03-19T08:35:06.093Z,7.00
2023-03-19T08:37:32.756Z,9.02
2023-03-19T08:39:59.231Z,11.93
2023-03-19T08:42:25.708Z,12.38
2023-03-19T08:44:52.150Z,14.02
2023-03-19T08:47:18.856Z,15.73
2023-03-19T08:49:45.351Z,8.90
2023-03-19T08:52:11.968Z,6.40
2023-03-19T08:54:38.444Z,6.20
2023-03-19T08:57:04.966Z,7.07
2023-03-19T08:59:34.069Z,6.05
2023-03-19T09:02:01.670Z,7.70
2023-03-19T09:04:28.412Z,7.22
2023-03-19T09:06:55.053Z,7.72
2023-03-19T09:09:24.028Z,6.18
2023-03-19T09:11:50.822Z,1.52
2023-03-19T09:14:19.860Z,7.55
2023-03-19T09:16:46.767Z,6.93
2023-03-19T09:19:13.297Z,6.93
2023-03-19T09:21:39.937Z,8.13
2023-03-19T09:24:06.830Z,7.28
2023-03-19T09:26:33.365Z,7.53
2023-03-19T09:28:59.833Z,5.85
2023-03-19T09:31:29.089Z,7.05
2023-03-19T09:33:56.131Z,7.30
2023-03-19T09:36:22.589Z,5.55
2023-03-19T09:38:49.064Z,5.53
2023-03-19T09:41:15.486Z,6.43
2023-03-19T09:44:04.876Z,6.32
2023-03-19T09:46:51.394Z,7.30
2023-03-19T09:49:34.046Z,7.53
2023-03-19T09:52:38.975Z,7.43
2023-03-19T09:55:28.646Z,1.88
2023-03-19T09:57:57.376Z,2.97
2023-03-19T10:00:28.889Z,3.60
2023-03-19T10:03:25.441Z,5.70
2023-03-19T10:06:06.897Z,5.70
2023-03-19T10:08:59.935Z,2.45
2023-03-19T10:11:54.246Z,3.88
2023-03-19T10:14:27.180Z,3.30
2023-03-19T10:16:58.175Z,5.45
2023-03-19T10:19:40.852Z,2.08
2023-03-19T10:22:16.759Z,4.60
2023-03-19T10:24:46.598Z,6.30
2023-03-19T10:27:16.168Z,2.05
2023-03-19T10:29:43.238Z,6.10
2023-03-19T10:32:20.012Z,1.48
2023-03-19T10:34:50.442Z,3.97
2023-03-19T10:37:20.451Z,5.65
2023-03-19T10:39:49.382Z,5.80
2023-03-19T10:42:33.320Z,6.32
2023-03-19T10:45:21.978Z,5.53
2023-03-19T10:47:48.403Z,4.45
2023-03-19T10:50:23.220Z,3.45
2023-03-19T10:53:04.401Z,4.32
2023-03-19T10:55:31.739Z,5.30
2023-03-19T10:58:04.071Z,5.75
2023-03-19T11:00:33.375Z,5.72
2023-03-19T11:03:02.027Z,1.02
2023-03-19T11:05:31.954Z,5.80
2023-03-19T11:08:08.207Z,5.47
2023-03-19T11:10:36.248Z,4.80
2023-03-19T11:13:15.991Z,6.82
2023-03-19T11:15:42.658Z,5.85
2023-03-19T11:18:20.941Z,2.10
2023-03-19T11:20:59.742Z,2.72
2023-03-19T11:23:31.596Z,2.92
2023-03-19T11:26:04.592Z,2.30
2023-03-19T11:28:34.516Z,3.60
2023-03-19T11:31:41.688Z,3.45
2023-03-19T11:34:46.727Z,1.70
2023-03-19T11:37:22.520Z,1.92
2023-03-19T11:40:27.798Z,2.70
2023-03-19T11:43:08.756Z,1.50
2023-03-19T11:45:54.284Z,2.42
2023-03-19T11:48:38.397Z,2.10
2023-03-19T11:51:09.854Z,1.17
2023-03-19T11:53:48.965Z,1.25
2023-03-19T11:56:39.959Z,1.90
2023-03-19T11:59:09.399Z,1.48
2023-03-19T12:01:57.943Z,2.35
2023-03-19T12:04:55.509Z,1.58
2023-03-19T12:07:30.143Z,2.97
2023-03-19T12:10:30.195Z,3.00
2023-03-19T12:12:59.231Z,3.60
2023-03-19T12:15:28.471Z,3.28
2023-03-19T12:18:10.440Z,1.52
2023-03-19T12:20:49.034Z,4.43
2023-03-19T12:23:33.445Z,3.95
2023-03-19T12:26:05.094Z,5.15
2023-03-19T12:28:46.716Z,5.05
2023-03-19T12:31:36.548Z,5.38
2023-03-19T12:34:21.862Z,6.65
2023-03-19T12:37:07.808Z,5.35
2023-03-19T12:39:39.632Z,5.20
2023-03-19T12:42:11.381Z,6.38
2023-03-19T12:44:42.727Z,4.95
2023-03-19T12:47:25.071Z,5.88
2023-03-19T12:49:56.988Z,4.78
2023-03-19T12:52:44.614Z,5.63
2023-03-19T12:55:27.216Z,6.72
2023-03-19T12:57:58.099Z,5.13
2023-03-19T13:00:24.520Z,5.03
2023-03-19T13:03:01.896Z,5.53
2023-03-19T13:05:41.640Z,5.18
2023-03-19T13:08:20.598Z,5.88
2023-03-19T13:10:47.044Z,5.72
2023-03-19T13:13:13.521Z,5.70
2023-03-19T13:15:47.834Z,6.45
2023-03-19T13:18:34.978Z,6.40
2023-03-19T13:21:21.889Z,6.47
2023-03-19T13:23:52.604Z,6.80
2023-03-19T13:26:19.522Z,6.97
2023-03-19T13:29:14.725Z,7.72
2023-03-19T13:31:41.728Z,7.30
2023-03-19T13:34:21.443Z,7.75
2023-03-19T13:37:16.258Z,6.93
2023-03-19T13:39:44.442Z,5.88
2023-03-19T13:42:20.018Z,7.65
2023-03-19T13:44:51.556Z,7.95
2023-03-19T13:47:28.837Z,8.23
2023-03-19T13:50:20.423Z,8.52
2023-03-19T13:52:50.392Z,7.95
2023-03-19T13:55:25.824Z,5.60
2023-03-19T13:58:16.952Z,6.97
2023-03-19T14:00:43.494Z,7.40
2023-03-19T14:03:22.318Z,5.95
2023-03-19T14:05:51.074Z,7.10
2023-03-19T14:08:51.818Z,5.95
2023-03-19T14:11:29.063Z,1.80
2023-03-19T14:13:56.296Z,5.15
2023-03-19T14:16:26.682Z,5.22
2023-03-19T14:18:57.531Z,5.35
2023-03-19T14:21:33.793Z,5.97
2023-03-19T14:24:55.925Z,4.43
2023-03-19T14:27:30.587Z,5.38
2023-03-19T14:30:00.589Z,6.05
2023-03-19T14:32:35.031Z,3.72
2023-03-19T14:35:05.866Z,2.53
2023-03-19T14:37:48.949Z,5.28
2023-03-19T14:40:24.502Z,5.80
2023-03-19T14:43:06.479Z,6.65
2023-03-19T14:45:38.569Z,5.43
2023-03-19T14:48:14.070Z,6.45
2023-03-19T14:51:19.312Z,6.35
2023-03-19T14:54:28.260Z,4.95
2023-03-19T14:56:56.936Z,6.32
2023-03-19T14:59:23.469Z,6.13
2023-03-19T15:01:53.551Z,5.65
2023-03-19T15:04:24.022Z,5.28
2023-03-19T15:06:55.564Z,6.72
2023-03-19T15:09:33.766Z,6.28
2023-03-19T15:12:17.041Z,2.55
2023-03-19T15:15:14.058Z,5.35
2023-03-19T15:17:40.848Z,2.22
2023-03-19T15:20:18.616Z,5.50
2023-03-19T15:22:52.977Z,6.15
2023-03-19T15:25:20.245Z,6.97
2023-03-19T15:27:46.823Z,5.80
2023-03-19T15:30:28.489Z,6.28
2023-03-19T15:33:10.492Z,6.18
2023-03-19T15:38:12.065Z,4.82
2023-03-19T15:40:41.188Z,4.85
2023-03-19T15:43:11.148Z,9.10
2023-03-19T15:45:39.105Z,6.50
2023-03-19T15:48:17.121Z,5.13
2023-03-19T15:50:46.214Z,6.97
2023-03-19T15:53:16.796Z,5.57
2023-03-19T15:55:43.561Z,5.43
2023-03-19T15:58:16.879Z,4.55
2023-03-19T16:00:43.682Z,5.13
2023-03-19T16:03:20.825Z,5.38
2023-03-19T16:05:58.516Z,5.50
2023-03-19T16:08:26.844Z,5.28
2023-03-19T16:10:53.769Z,4.80
2023-03-19T16:13:25.865Z,4.90
2023-03-19T16:16:08.590Z,5.00
2023-03-19T16:18:45.558Z,6.03
2023-03-19T16:21:17.964Z,4.78
2023-03-19T16:23:51.451Z,4.68
2023-03-19T16:26:44.128Z,3.72
2023-03-19T16:29:22.680Z,4.07
2023-03-19T16:31:52.222Z,4.50
2023-03-19T16:34:32.118Z,5.00
2023-03-19T16:36:59.498Z,4.55
2023-03-19T16:39:35.046Z,4.47
2023-03-19T16:42:27.879Z,4.78
2023-03-19T16:44:54.538Z,4.50
2023-03-19T16:47:22.655Z,4.53
2023-03-19T16:49:50.981Z,4.72
2023-03-19T16:52:21.648Z,5.40
2023-03-19T16:54:48.617Z,6.22
2023-03-19T16:57:16.934Z,5.75
2023-03-19T16:59:44.298Z,5.30
2023-03-19T17:02:12.246Z,5.35
2023-03-19T17:04:38.893Z,6.47
2023-03-19T17:07:06.119Z,5.72
2023-03-19T17:09:32.935Z,5.72
2023-03-19T17:11:59.959Z,5.30
2023-03-19T17:14:26.460Z,4.53
2023-03-19T17:16:54.462Z,5.68
2023-03-19T17:19:27.158Z,6.65
2023-03-19T17:21:58.070Z,6.38
2023-03-19T17:24:34.389Z,7.28
2023-03-19T17:27:02.970Z,6.90
2023-03-19T17:29:30.534Z,6.00
2023-03-19T17:32:04.192Z,6.80
2023-03-19T17:34:35.795Z,6.93
2023-03-19T17:37:11.018Z,6.43
2023-03-19T17:39:37.484Z,6.60
2023-03-19T17:42:18.188Z,7.22
2023-03-19T17:44:44.672Z,6.43
2023-03-19T17:47:11.687Z,6.85
2023-03-19T17:49:40.102Z,7.28
2023-03-19T17:52:14.657Z,6.47
2023-03-19T17:54:41.158Z,6.25
2023-03-19T17:57:12.552Z,8.77
2023-03-19T17:59:39.109Z,6.30
2023-03-19T18:02:25.216Z,7.05
2023-03-19T18:04:52.717Z,7.15
2023-03-19T18:07:19.377Z,7.88
2023-03-19T18:09:45.886Z,9.27
2023-03-19T18:12:12.410Z,8.75
2023-03-19T18:14:38.873Z,9.20
2023-03-19T18:17:05.396Z,8.43
2023-03-19T18:19:34.760Z,8.50
2023-03-19T18:22:01.274Z,7.45
2023-03-19T18:24:27.802Z,7.75
2023-03-19T18:26:54.243Z,7.93
2023-03-19T18:29:20.830Z,7.65
2023-03-19T18:31:49.123Z,8.38
2023-03-19T18:34:16.967Z,8.48
2023-03-19T18:36:43.669Z,9.50
2023-03-19T18:39:13.867Z,9.48
2023-03-19T18:41:41.099Z,9.90
2023-03-19T18:44:08.457Z,8.98
2023-03-19T18:46:37.355Z,8.27
2023-03-19T18:49:07.167Z,9.05
2023-03-19T18:51:33.629Z,9.30
2023-03-19T18:54:00.504Z,8.25
2023-03-19T18:56:32.984Z,8.70
2023-03-19T18:59:00.866Z,8.88
2023-03-19T19:01:27.749Z,9.30
2023-03-19T19:03:54.640Z,9.93
2023-03-19T19:06:28.291Z,8.32
2023-03-19T19:09:03.543Z,9.48
2023-03-19T19:11:30.225Z,9.15
2023-03-19T19:13:58.718Z,9.18
2023-03-19T19:16:31.839Z,10.07
2023-03-19T19:18:58.413Z,9.90
2023-03-19T19:21:24.914Z,10.68
2023-03-19T19:23:51.403Z,10.50
2023-03-19T19:26:28.738Z,10.95
2023-03-19T19:28:58.732Z,11.43
2023-03-19T19:31:31.510Z,11.00
2023-03-19T19:34:00.103Z,12.02
2023-03-19T19:36:28.057Z,12.73
2023-03-19T19:38:54.982Z,13.50
2023-03-19T19:41:24.476Z,12.52
2023-03-19T19:43:53.465Z,12.55
2023-03-19T19:46:23.343Z,13.23
2023-03-19T19:48:50.437Z,13.13
2023-03-19T19:51:22.981Z,11.73
2023-03-19T19:53:49.804Z,12.02
2023-03-19T19:56:21.783Z,14.05
2023-03-19T19:58:52.010Z,13.18
2023-03-19T20:01:24.924Z,13.77
2023-03-19T20:03:52.512Z,12.57
2023-03-19T20:06:19.804Z,13.38
2023-03-19T20:08:49.289Z,14.02
2023-03-19T20:11:21.578Z,12.23
2023-03-19T20:13:52.064Z,13.50
2023-03-19T20:16:19.817Z,13.75
2023-03-19T20:18:47.625Z,14.27
2023-03-19T20:21:15.644Z,13.75
2023-03-19T20:23:43.978Z,14.35
2023-03-19T20:26:19.525Z,9.15
2023-03-19T20:28:47.108Z,15.38
2023-03-19T20:31:24.836Z,14.15
2023-03-19T20:33:51.564Z,14.52
2023-03-19T20:36:19.510Z,15.70
2023-03-19T20:38:46.102Z,17.50
2023-03-19T20:41:21.673Z,15.57
2023-03-19T20:43:49.122Z,15.13
2023-03-19T20:46:17.602Z,14.32
2023-03-19T20:48:44.157Z,14.82
2023-03-19T20:51:17.975Z,14.05
2023-03-19T20:53:44.443Z,13.70
2023-03-19T20:56:15.953Z,14.93
2023-03-19T20:58:42.560Z,14.02
2023-03-19T21:01:10.714Z,14.93
2023-03-19T21:03:38.167Z,13.43
2023-03-19T21:06:06.922Z,15.10
2023-03-19T21:08:39.919Z,15.18
2023-03-19T21:11:11.415Z,15.40
2023-03-19T21:13:37.936Z,15.57
2023-03-19T21:16:04.597Z,15.90
2023-03-19T21:18:31.099Z,16.48
2023-03-19T21:20:57.991Z,16.20
2023-03-19T21:23:31.834Z,15.95
2023-03-19T21:25:59.959Z,15.85
2023-03-19T21:28:34.630Z,16.05
2023-03-19T21:31:02.310Z,14.68
2023-03-19T21:33:32.887Z,17.05
2023-03-19T21:36:00.883Z,15.20
2023-03-19T21:38:28.184Z,17.13
2023-03-19T21:40:58.464Z,17.42
2023-03-19T21:43:33.896Z,18.13
2023-03-19T21:46:13.915Z,14.70
2023-03-19T21:48:48.362Z,15.40
2023-03-19T21:51:16.487Z,16.15
2023-03-19T21:53:45.526Z,17.70
2023-03-19T21:56:24.522Z,18.45
2023-03-19T21:58:54.153Z,17.88
2023-03-19T22:01:23.788Z,18.35
2023-03-19T22:03:51.857Z,18.90
2023-03-19T22:06:19.194Z,19.83
2023-03-19T22:08:46.754Z,20.95
2023-03-19T22:11:20.661Z,19.40
2023-03-19T22:13:47.946Z,20.10
2023-03-19T22:16:21.387Z,21.10
2023-03-19T22:18:48.743Z,18.48
2023-03-19T22:21:17.945Z,20.33
2023-03-19T22:23:46.474Z,21.58
2023-03-19T22:26:36.043Z,20.27
2023-03-19T22:29:15.553Z,18.25
2023-03-19T22:31:42.629Z,19.48
2023-03-19T22:34:17.205Z,13.77
2023-03-19T22:36:44.293Z,12.77
2023-03-19T22:39:10.874Z,15.45
2023-03-19T22:41:40.365Z,18.05
2023-03-19T22:44:11.324Z,18.52
2023-03-19T22:46:37.881Z,18.92
2023-03-19T22:49:15.444Z,16.30
2023-03-19T22:51:43.705Z,18.05
2023-03-19T22:54:11.961Z,20.35
2023-03-19T22:56:38.643Z,18.75
2023-03-19T22:59:05.275Z,17.08
2023-03-19T23:01:45.145Z,17.08
2023-03-19T23:04:19.564Z,4.95
2023-03-19T23:06:46.809Z,18.00
2023-03-19T23:09:19.454Z,13.07
2023-03-19T23:11:48.176Z,17.00
2023-03-19T23:14:28.467Z,15.57
2023-03-19T23:19:31.006Z,15.90
2023-03-19T23:21:58.838Z,16.13
2023-03-19T23:24:25.744Z,16.33
2023-03-19T23:26:54.810Z,16.95
2023-03-19T23:29:24.693Z,15.15
2023-03-19T23:31:51.884Z,10.30
2023-03-19T23:34:18.884Z,15.63
2023-03-19T23:36:45.704Z,15.05
2023-03-19T23:39:12.211Z,11.80
2023-03-19T23:41:58.932Z,11.20
2023-03-19T23:44:28.892Z,13.77
2023-03-19T23:46:59.399Z,9.43
2023-03-19T23:49:32.221Z,15.50
2023-03-19T23:51:59.155Z,8.05
2023-03-19T23:54:33.723Z,15.07
2023-03-19T23:57:03.998Z,17.85
2023-03-19T23:59:35.697Z,16.83
